sensor_id;sensor_type;location;lat;lon;timestamp;P1;durP1;ratioP1;P2;durP2;ratioP2
62037;SDS011;47991;42.974;12.082;2023-11-19T00:02:58;6.90;;;2.20;;
62037;SDS011;47991;42.974;12.082;2023-11-19T00:05:25;4.40;;;2.20;;
62037;SDS011;47991;42.974;12.082;2023-11-19T00:07:54;6.90;;;2.20;;
62037;SDS011;47991;42.974;12.082;2023-11-19T00:10:22;7.80;;;2.60;;
62037;SDS011;47991;42.974;12.082;2023-11-19T00:12:49;8.60;;;2.10;;
62037;SDS011;47991;42.974;12.082;2023-11-19T00:15:17;5.50;;;2.00;;
62037;SDS011;47991;42.974;12.082;2023-11-19T00:20:16;4.70;;;2.00;;
62037;SDS011;47991;42.974;12.082;2023-11-19T00:22:45;6.20;;;2.40;;
62037;SDS011;47991;42.974;12.082;2023-11-19T00:25:17;5.40;;;2.10;;
62037;SDS011;47991;42.974;12.082;2023-11-19T00:27:45;7.30;;;2.50;;
62037;SDS011;47991;42.974;12.082;2023-11-19T00:30:12;6.30;;;2.30;;
62037;SDS011;47991;42.974;12.082;2023-11-19T00:32:40;7.30;;;2.40;;
62037;SDS011;47991;42.974;12.082;2023-11-19T00:35:08;5.50;;;2.10;;
62037;SDS011;47991;42.974;12.082;2023-11-19T00:37:40;11.00;;;1.90;;
62037;SDS011;47991;42.974;12.082;2023-11-19T00:40:09;6.80;;;2.20;;
62037;SDS011;47991;42.974;12.082;2023-11-19T00:42:37;5.10;;;2.00;;
62037;SDS011;47991;42.974;12.082;2023-11-19T00:45:04;4.60;;;2.00;;
62037;SDS011;47991;42.974;12.082;2023-11-19T00:47:36;5.40;;;2.30;;
62037;SDS011;47991;42.974;12.082;2023-11-19T00:50:03;6.00;;;2.40;;
62037;SDS011;47991;42.974;12.082;2023-11-19T00:52:30;5.10;;;2.20;;
62037;SDS011;47991;42.974;12.082;2023-11-19T00:54:57;5.30;;;2.40;;
62037;SDS011;47991;42.974;12.082;2023-11-19T00:57:24;5.30;;;2.60;;
62037;SDS011;47991;42.974;12.082;2023-11-19T00:59:53;4.70;;;2.20;;
62037;SDS011;47991;42.974;12.082;2023-11-19T01:02:20;6.00;;;2.60;;
62037;SDS011;47991;42.974;12.082;2023-11-19T01:04:47;5.50;;;2.40;;
62037;SDS011;47991;42.974;12.082;2023-11-19T01:07:14;8.10;;;2.20;;
62037;SDS011;47991;42.974;12.082;2023-11-19T01:09:43;10.00;;;2.50;;
62037;SDS011;47991;42.974;12.082;2023-11-19T01:12:10;4.70;;;2.30;;
62037;SDS011;47991;42.974;12.082;2023-11-19T01:14:37;6.80;;;2.10;;
62037;SDS011;47991;42.974;12.082;2023-11-19T01:17:04;6.30;;;2.60;;
62037;SDS011;47991;42.974;12.082;2023-11-19T01:19:31;6.30;;;2.50;;
62037;SDS011;47991;42.974;12.082;2023-11-19T01:21:58;7.80;;;2.60;;
62037;SDS011;47991;42.974;12.082;2023-11-19T01:24:25;7.00;;;2.50;;
62037;SDS011;47991;42.974;12.082;2023-11-19T01:26:56;6.70;;;2.60;;
62037;SDS011;47991;42.974;12.082;2023-11-19T01:29:24;8.90;;;2.30;;
62037;SDS011;47991;42.974;12.082;2023-11-19T01:31:51;7.60;;;2.70;;
62037;SDS011;47991;42.974;12.082;2023-11-19T01:34:17;3.80;;;2.30;;
62037;SDS011;47991;42.974;12.082;2023-11-19T01:36:44;6.80;;;3.20;;
62037;SDS011;47991;42.974;12.082;2023-11-19T01:39:13;8.40;;;2.60;;
62037;SDS011;47991;42.974;12.082;2023-11-19T01:41:42;5.10;;;2.20;;
62037;SDS011;47991;42.974;12.082;2023-11-19T01:44:10;5.50;;;2.10;;
62037;SDS011;47991;42.974;12.082;2023-11-19T01:46:40;6.80;;;2.60;;
62037;SDS011;47991;42.974;12.082;2023-11-19T01:49:08;4.80;;;2.30;;
62037;SDS011;47991;42.974;12.082;2023-11-19T01:51:36;6.50;;;2.40;;
62037;SDS011;47991;42.974;12.082;2023-11-19T01:54:03;5.50;;;2.60;;
62037;SDS011;47991;42.974;12.082;2023-11-19T01:56:30;9.30;;;3.20;;
62037;SDS011;47991;42.974;12.082;2023-11-19T01:58:58;6.30;;;3.20;;
62037;SDS011;47991;42.974;12.082;2023-11-19T02:01:26;11.20;;;4.10;;
62037;SDS011;47991;42.974;12.082;2023-11-19T02:03:56;10.30;;;4.50;;
62037;SDS011;47991;42.974;12.082;2023-11-19T02:06:24;9.10;;;4.50;;
62037;SDS011;47991;42.974;12.082;2023-11-19T02:08:53;9.10;;;4.50;;
62037;SDS011;47991;42.974;12.082;2023-11-19T02:11:20;8.50;;;3.70;;
62037;SDS011;47991;42.974;12.082;2023-11-19T02:13:46;8.60;;;4.50;;
62037;SDS011;47991;42.974;12.082;2023-11-19T02:16:13;9.30;;;4.50;;
62037;SDS011;47991;42.974;12.082;2023-11-19T02:18:41;8.10;;;4.10;;
62037;SDS011;47991;42.974;12.082;2023-11-19T02:21:07;9.90;;;4.20;;
62037;SDS011;47991;42.974;12.082;2023-11-19T02:23:37;7.90;;;3.90;;
62037;SDS011;47991;42.974;12.082;2023-11-19T02:26:18;7.30;;;3.90;;
62037;SDS011;47991;42.974;12.082;2023-11-19T02:28:55;8.70;;;4.40;;
62037;SDS011;47991;42.974;12.082;2023-11-19T02:31:22;6.50;;;2.90;;
62037;SDS011;47991;42.974;12.082;2023-11-19T02:33:49;6.20;;;2.90;;
62037;SDS011;47991;42.974;12.082;2023-11-19T02:36:17;9.50;;;4.50;;
62037;SDS011;47991;42.974;12.082;2023-11-19T02:38:44;12.90;;;4.90;;
62037;SDS011;47991;42.974;12.082;2023-11-19T02:41:11;8.80;;;4.80;;
62037;SDS011;47991;42.974;12.082;2023-11-19T02:43:38;10.30;;;4.40;;
62037;SDS011;47991;42.974;12.082;2023-11-19T02:46:05;11.30;;;4.60;;
62037;SDS011;47991;42.974;12.082;2023-11-19T02:48:34;7.90;;;3.40;;
62037;SDS011;47991;42.974;12.082;2023-11-19T02:51:02;6.40;;;3.30;;
62037;SDS011;47991;42.974;12.082;2023-11-19T02:53:36;7.90;;;3.60;;
62037;SDS011;47991;42.974;12.082;2023-11-19T02:58:46;10.70;;;5.30;;
62037;SDS011;47991;42.974;12.082;2023-11-19T03:01:14;12.00;;;4.80;;
62037;SDS011;47991;42.974;12.082;2023-11-19T03:03:59;12.90;;;4.80;;
62037;SDS011;47991;42.974;12.082;2023-11-19T03:06:27;10.40;;;5.50;;
62037;SDS011;47991;42.974;12.082;2023-11-19T03:08:55;11.20;;;5.10;;
62037;SDS011;47991;42.974;12.082;2023-11-19T03:11:22;6.90;;;3.70;;
62037;SDS011;47991;42.974;12.082;2023-11-19T03:13:51;11.50;;;4.30;;
62037;SDS011;47991;42.974;12.082;2023-11-19T03:16:17;8.60;;;4.60;;
62037;SDS011;47991;42.974;12.082;2023-11-19T03:18:45;7.90;;;3.90;;
62037;SDS011;47991;42.974;12.082;2023-11-19T03:21:12;11.30;;;5.40;;
62037;SDS011;47991;42.974;12.082;2023-11-19T03:23:39;13.00;;;6.30;;
62037;SDS011;47991;42.974;12.082;2023-11-19T03:26:07;10.60;;;5.40;;
62037;SDS011;47991;42.974;12.082;2023-11-19T03:28:34;10.30;;;5.40;;
62037;SDS011;47991;42.974;12.082;2023-11-19T03:31:04;10.40;;;5.10;;
62037;SDS011;47991;42.974;12.082;2023-11-19T03:33:31;9.90;;;5.70;;
62037;SDS011;47991;42.974;12.082;2023-11-19T03:35:58;11.60;;;5.50;;
62037;SDS011;47991;42.974;12.082;2023-11-19T03:38:25;10.90;;;5.40;;
62037;SDS011;47991;42.974;12.082;2023-11-19T03:40:52;7.20;;;2.40;;
62037;SDS011;47991;42.974;12.082;2023-11-19T03:45:48;12.10;;;4.80;;
62037;SDS011;47991;42.974;12.082;2023-11-19T03:48:15;10.40;;;4.80;;
62037;SDS011;47991;42.974;12.082;2023-11-19T03:50:42;5.10;;;3.10;;
62037;SDS011;47991;42.974;12.082;2023-11-19T03:53:11;8.80;;;4.20;;
62037;SDS011;47991;42.974;12.082;2023-11-19T03:55:38;10.30;;;4.60;;
62037;SDS011;47991;42.974;12.082;2023-11-19T03:58:05;10.40;;;4.70;;
62037;SDS011;47991;42.974;12.082;2023-11-19T04:00:32;9.00;;;4.60;;
62037;SDS011;47991;42.974;12.082;2023-11-19T04:03:00;8.20;;;4.50;;
62037;SDS011;47991;42.974;12.082;2023-11-19T04:05:27;7.80;;;3.70;;
62037;SDS011;47991;42.974;12.082;2023-11-19T04:07:54;6.70;;;3.80;;
62037;SDS011;47991;42.974;12.082;2023-11-19T04:10:21;9.40;;;4.50;;
62037;SDS011;47991;42.974;12.082;2023-11-19T04:12:49;9.50;;;3.90;;
62037;SDS011;47991;42.974;12.082;2023-11-19T04:15:16;7.50;;;3.80;;
62037;SDS011;47991;42.974;12.082;2023-11-19T04:17:43;11.60;;;4.80;;
62037;SDS011;47991;42.974;12.082;2023-11-19T04:20:10;10.30;;;4.80;;
62037;SDS011;47991;42.974;12.082;2023-11-19T04:22:39;11.00;;;5.90;;
62037;SDS011;47991;42.974;12.082;2023-11-19T04:25:07;9.50;;;4.90;;
62037;SDS011;47991;42.974;12.082;2023-11-19T04:27:35;9.80;;;5.30;;
62037;SDS011;47991;42.974;12.082;2023-11-19T04:30:02;11.90;;;6.00;;
62037;SDS011;47991;42.974;12.082;2023-11-19T04:32:30;10.00;;;5.50;;
62037;SDS011;47991;42.974;12.082;2023-11-19T04:34:57;9.60;;;5.20;;
62037;SDS011;47991;42.974;12.082;2023-11-19T04:37:24;11.10;;;5.80;;
62037;SDS011;47991;42.974;12.082;2023-11-19T04:39:51;10.50;;;5.20;;
62037;SDS011;47991;42.974;12.082;2023-11-19T04:42:18;12.20;;;5.80;;
62037;SDS011;47991;42.974;12.082;2023-11-19T04:44:45;11.40;;;5.00;;
62037;SDS011;47991;42.974;12.082;2023-11-19T04:47:12;4.30;;;1.90;;
62037;SDS011;47991;42.974;12.082;2023-11-19T04:49:42;7.50;;;3.90;;
62037;SDS011;47991;42.974;12.082;2023-11-19T04:52:09;9.70;;;4.50;;
62037;SDS011;47991;42.974;12.082;2023-11-19T04:54:41;7.60;;;3.40;;
62037;SDS011;47991;42.974;12.082;2023-11-19T04:57:10;8.20;;;3.60;;
62037;SDS011;47991;42.974;12.082;2023-11-19T04:59:37;5.30;;;2.80;;
62037;SDS011;47991;42.974;12.082;2023-11-19T05:02:05;7.80;;;4.50;;
62037;SDS011;47991;42.974;12.082;2023-11-19T05:04:32;9.70;;;4.60;;
62037;SDS011;47991;42.974;12.082;2023-11-19T05:06:58;12.70;;;5.40;;
62037;SDS011;47991;42.974;12.082;2023-11-19T05:09:25;11.10;;;5.50;;
62037;SDS011;47991;42.974;12.082;2023-11-19T05:11:52;12.70;;;6.30;;
62037;SDS011;47991;42.974;12.082;2023-11-19T05:14:19;10.40;;;5.60;;
62037;SDS011;47991;42.974;12.082;2023-11-19T05:16:48;12.00;;;5.90;;
62037;SDS011;47991;42.974;12.082;2023-11-19T05:19:14;11.40;;;5.80;;
62037;SDS011;47991;42.974;12.082;2023-11-19T05:21:44;10.20;;;5.00;;
62037;SDS011;47991;42.974;12.082;2023-11-19T05:24:11;12.60;;;6.40;;
62037;SDS011;47991;42.974;12.082;2023-11-19T05:26:38;10.50;;;5.80;;
62037;SDS011;47991;42.974;12.082;2023-11-19T05:31:32;11.90;;;6.20;;
62037;SDS011;47991;42.974;12.082;2023-11-19T05:33:59;12.20;;;5.60;;
62037;SDS011;47991;42.974;12.082;2023-11-19T05:36:26;9.90;;;5.80;;
62037;SDS011;47991;42.974;12.082;2023-11-19T05:38:55;11.00;;;6.00;;
62037;SDS011;47991;42.974;12.082;2023-11-19T05:41:22;9.50;;;5.30;;
62037;SDS011;47991;42.974;12.082;2023-11-19T05:43:49;8.90;;;5.20;;
62037;SDS011;47991;42.974;12.082;2023-11-19T05:46:16;7.70;;;3.90;;
62037;SDS011;47991;42.974;12.082;2023-11-19T05:48:43;12.70;;;6.60;;
62037;SDS011;47991;42.974;12.082;2023-11-19T05:51:11;11.00;;;6.00;;
62037;SDS011;47991;42.974;12.082;2023-11-19T05:53:39;10.60;;;5.70;;
62037;SDS011;47991;42.974;12.082;2023-11-19T05:56:06;9.90;;;5.20;;
62037;SDS011;47991;42.974;12.082;2023-11-19T05:58:35;8.80;;;5.70;;
62037;SDS011;47991;42.974;12.082;2023-11-19T06:01:04;14.30;;;7.50;;
62037;SDS011;47991;42.974;12.082;2023-11-19T06:03:33;13.10;;;6.80;;
62037;SDS011;47991;42.974;12.082;2023-11-19T06:06:00;11.90;;;5.90;;
62037;SDS011;47991;42.974;12.082;2023-11-19T06:10:54;10.70;;;5.50;;
62037;SDS011;47991;42.974;12.082;2023-11-19T06:13:20;11.60;;;7.10;;
62037;SDS011;47991;42.974;12.082;2023-11-19T06:15:48;15.30;;;6.80;;
62037;SDS011;47991;42.974;12.082;2023-11-19T06:18:15;10.30;;;6.00;;
62037;SDS011;47991;42.974;12.082;2023-11-19T06:20:43;10.40;;;6.60;;
62037;SDS011;47991;42.974;12.082;2023-11-19T06:23:10;11.10;;;6.30;;
62037;SDS011;47991;42.974;12.082;2023-11-19T06:25:37;10.00;;;6.50;;
62037;SDS011;47991;42.974;12.082;2023-11-19T06:28:04;12.80;;;6.50;;
62037;SDS011;47991;42.974;12.082;2023-11-19T06:30:31;11.60;;;6.80;;
62037;SDS011;47991;42.974;12.082;2023-11-19T06:32:59;10.50;;;6.30;;
62037;SDS011;47991;42.974;12.082;2023-11-19T06:35:26;4.30;;;2.40;;
62037;SDS011;47991;42.974;12.082;2023-11-19T06:37:55;10.40;;;6.20;;
62037;SDS011;47991;42.974;12.082;2023-11-19T06:40:23;13.90;;;6.60;;
62037;SDS011;47991;42.974;12.082;2023-11-19T06:42:50;10.70;;;6.80;;
62037;SDS011;47991;42.974;12.082;2023-11-19T06:45:18;11.00;;;6.10;;
62037;SDS011;47991;42.974;12.082;2023-11-19T06:47:45;11.00;;;6.00;;
62037;SDS011;47991;42.974;12.082;2023-11-19T06:50:12;11.20;;;5.90;;
62037;SDS011;47991;42.974;12.082;2023-11-19T06:52:39;10.70;;;6.60;;
62037;SDS011;47991;42.974;12.082;2023-11-19T06:55:06;11.60;;;7.10;;
62037;SDS011;47991;42.974;12.082;2023-11-19T06:57:34;13.00;;;6.90;;
62037;SDS011;47991;42.974;12.082;2023-11-19T07:00:01;13.50;;;7.50;;
62037;SDS011;47991;42.974;12.082;2023-11-19T07:02:33;13.60;;;7.10;;
62037;SDS011;47991;42.974;12.082;2023-11-19T07:05:00;14.40;;;7.80;;
62037;SDS011;47991;42.974;12.082;2023-11-19T07:07:27;13.00;;;6.70;;
62037;SDS011;47991;42.974;12.082;2023-11-19T07:09:54;11.60;;;6.80;;
62037;SDS011;47991;42.974;12.082;2023-11-19T07:12:21;11.90;;;6.40;;
62037;SDS011;47991;42.974;12.082;2023-11-19T07:14:48;11.90;;;5.80;;
62037;SDS011;47991;42.974;12.082;2023-11-19T07:17:15;9.60;;;5.40;;
62037;SDS011;47991;42.974;12.082;2023-11-19T07:19:44;11.40;;;7.10;;
62037;SDS011;47991;42.974;12.082;2023-11-19T07:22:11;12.30;;;5.10;;
62037;SDS011;47991;42.974;12.082;2023-11-19T07:24:41;9.80;;;5.60;;
62037;SDS011;47991;42.974;12.082;2023-11-19T07:27:09;10.50;;;5.80;;
62037;SDS011;47991;42.974;12.082;2023-11-19T07:29:36;9.70;;;5.30;;
62037;SDS011;47991;42.974;12.082;2023-11-19T07:32:03;11.30;;;5.20;;
62037;SDS011;47991;42.974;12.082;2023-11-19T07:34:31;10.30;;;5.90;;
62037;SDS011;47991;42.974;12.082;2023-11-19T07:37:01;12.30;;;6.40;;
62037;SDS011;47991;42.974;12.082;2023-11-19T07:39:29;11.10;;;5.90;;
62037;SDS011;47991;42.974;12.082;2023-11-19T07:41:57;11.30;;;6.00;;
62037;SDS011;47991;42.974;12.082;2023-11-19T07:44:24;8.80;;;5.50;;
62037;SDS011;47991;42.974;12.082;2023-11-19T07:46:52;7.60;;;5.10;;
62037;SDS011;47991;42.974;12.082;2023-11-19T07:49:19;9.20;;;5.60;;
62037;SDS011;47991;42.974;12.082;2023-11-19T07:51:46;12.90;;;6.30;;
62037;SDS011;47991;42.974;12.082;2023-11-19T07:54:13;9.70;;;5.90;;
62037;SDS011;47991;42.974;12.082;2023-11-19T07:56:40;12.20;;;7.00;;
62037;SDS011;47991;42.974;12.082;2023-11-19T07:59:07;8.90;;;5.50;;
62037;SDS011;47991;42.974;12.082;2023-11-19T08:01:34;9.70;;;5.70;;
62037;SDS011;47991;42.974;12.082;2023-11-19T08:04:01;13.40;;;6.70;;
62037;SDS011;47991;42.974;12.082;2023-11-19T08:06:28;11.40;;;6.80;;
62037;SDS011;47991;42.974;12.082;2023-11-19T08:11:23;10.90;;;6.10;;
62037;SDS011;47991;42.974;12.082;2023-11-19T08:13:51;11.40;;;6.30;;
62037;SDS011;47991;42.974;12.082;2023-11-19T08:16:17;10.90;;;4.70;;
62037;SDS011;47991;42.974;12.082;2023-11-19T08:18:44;14.00;;;7.20;;
62037;SDS011;47991;42.974;12.082;2023-11-19T08:21:11;11.90;;;7.20;;
62037;SDS011;47991;42.974;12.082;2023-11-19T08:23:38;8.10;;;4.70;;
62037;SDS011;47991;42.974;12.082;2023-11-19T08:26:05;12.10;;;7.20;;
62037;SDS011;47991;42.974;12.082;2023-11-19T08:28:33;16.00;;;7.90;;
62037;SDS011;47991;42.974;12.082;2023-11-19T08:31:01;9.70;;;6.30;;
62037;SDS011;47991;42.974;12.082;2023-11-19T08:33:30;15.20;;;7.90;;
62037;SDS011;47991;42.974;12.082;2023-11-19T08:35:58;13.80;;;7.40;;
62037;SDS011;47991;42.974;12.082;2023-11-19T08:38:25;13.80;;;7.20;;
62037;SDS011;47991;42.974;12.082;2023-11-19T08:40:53;11.60;;;6.90;;
62037;SDS011;47991;42.974;12.082;2023-11-19T08:43:20;15.70;;;7.50;;
62037;SDS011;47991;42.974;12.082;2023-11-19T08:45:47;13.70;;;7.10;;
62037;SDS011;47991;42.974;12.082;2023-11-19T08:48:14;11.20;;;6.70;;
62037;SDS011;47991;42.974;12.082;2023-11-19T08:50:41;10.40;;;5.50;;
62037;SDS011;47991;42.974;12.082;2023-11-19T08:53:08;15.20;;;7.60;;
62037;SDS011;47991;42.974;12.082;2023-11-19T08:55:35;10.50;;;6.20;;
62037;SDS011;47991;42.974;12.082;2023-11-19T08:58:03;13.80;;;7.60;;
62037;SDS011;47991;42.974;12.082;2023-11-19T09:00:30;12.60;;;6.60;;
62037;SDS011;47991;42.974;12.082;2023-11-19T09:02:59;11.50;;;7.40;;
62037;SDS011;47991;42.974;12.082;2023-11-19T09:05:26;14.40;;;6.30;;
62037;SDS011;47991;42.974;12.082;2023-11-19T09:07:52;11.70;;;6.50;;
62037;SDS011;47991;42.974;12.082;2023-11-19T09:10:19;11.10;;;6.50;;
62037;SDS011;47991;42.974;12.082;2023-11-19T09:12:46;11.90;;;6.90;;
62037;SDS011;47991;42.974;12.082;2023-11-19T09:15:14;10.60;;;6.80;;
62037;SDS011;47991;42.974;12.082;2023-11-19T09:17:43;14.20;;;6.70;;
62037;SDS011;47991;42.974;12.082;2023-11-19T09:20:10;11.50;;;6.90;;
62037;SDS011;47991;42.974;12.082;2023-11-19T09:22:41;10.50;;;6.70;;
62037;SDS011;47991;42.974;12.082;2023-11-19T09:25:09;11.70;;;6.30;;
62037;SDS011;47991;42.974;12.082;2023-11-19T09:27:36;11.70;;;6.60;;
62037;SDS011;47991;42.974;12.082;2023-11-19T09:30:03;13.30;;;7.30;;
62037;SDS011;47991;42.974;12.082;2023-11-19T09:32:31;10.50;;;6.10;;
62037;SDS011;47991;42.974;12.082;2023-11-19T09:34:58;10.80;;;6.80;;
62037;SDS011;47991;42.974;12.082;2023-11-19T09:37:25;12.60;;;6.90;;
62037;SDS011;47991;42.974;12.082;2023-11-19T09:39:51;11.20;;;7.50;;
62037;SDS011;47991;42.974;12.082;2023-11-19T09:42:20;11.10;;;6.90;;
62037;SDS011;47991;42.974;12.082;2023-11-19T09:44:47;10.50;;;7.20;;
62037;SDS011;47991;42.974;12.082;2023-11-19T09:47:16;10.90;;;6.50;;
62037;SDS011;47991;42.974;12.082;2023-11-19T09:49:45;9.40;;;6.00;;
62037;SDS011;47991;42.974;12.082;2023-11-19T09:52:14;10.90;;;6.50;;
62037;SDS011;47991;42.974;12.082;2023-11-19T09:54:41;9.80;;;5.80;;
62037;SDS011;47991;42.974;12.082;2023-11-19T09:57:09;13.90;;;6.40;;
62037;SDS011;47991;42.974;12.082;2023-11-19T09:59:40;9.80;;;5.90;;
62037;SDS011;47991;42.974;12.082;2023-11-19T10:02:08;9.80;;;5.80;;
62037;SDS011;47991;42.974;12.082;2023-11-19T10:04:36;9.20;;;5.60;;
62037;SDS011;47991;42.974;12.082;2023-11-19T10:07:05;12.10;;;5.00;;
62037;SDS011;47991;42.974;12.082;2023-11-19T10:09:32;13.50;;;5.00;;
62037;SDS011;47991;42.974;12.082;2023-11-19T10:11:58;9.70;;;5.50;;
62037;SDS011;47991;42.974;12.082;2023-11-19T10:14:26;9.60;;;5.90;;
62037;SDS011;47991;42.974;12.082;2023-11-19T10:16:54;14.00;;;6.70;;
62037;SDS011;47991;42.974;12.082;2023-11-19T10:19:22;9.80;;;5.60;;
62037;SDS011;47991;42.974;12.082;2023-11-19T10:21:49;10.30;;;5.50;;
62037;SDS011;47991;42.974;12.082;2023-11-19T10:24:16;11.10;;;5.80;;
62037;SDS011;47991;42.974;12.082;2023-11-19T10:27:02;10.10;;;6.20;;
62037;SDS011;47991;42.974;12.082;2023-11-19T10:29:30;11.50;;;5.90;;
62037;SDS011;47991;42.974;12.082;2023-11-19T10:31:57;12.50;;;6.30;;
62037;SDS011;47991;42.974;12.082;2023-11-19T10:34:25;11.00;;;5.20;;
62037;SDS011;47991;42.974;12.082;2023-11-19T10:36:53;11.70;;;6.60;;
62037;SDS011;47991;42.974;12.082;2023-11-19T10:39:20;8.90;;;4.20;;
62037;SDS011;47991;42.974;12.082;2023-11-19T10:41:48;13.30;;;5.80;;
62037;SDS011;47991;42.974;12.082;2023-11-19T10:47:14;12.00;;;6.20;;
62037;SDS011;47991;42.974;12.082;2023-11-19T10:49:44;12.30;;;6.60;;
62037;SDS011;47991;42.974;12.082;2023-11-19T10:52:18;12.10;;;6.80;;
62037;SDS011;47991;42.974;12.082;2023-11-19T10:54:49;12.60;;;6.60;;
62037;SDS011;47991;42.974;12.082;2023-11-19T10:59:47;11.80;;;5.10;;
62037;SDS011;47991;42.974;12.082;2023-11-19T11:02:18;11.20;;;6.80;;
62037;SDS011;47991;42.974;12.082;2023-11-19T11:04:48;13.00;;;6.80;;
62037;SDS011;47991;42.974;12.082;2023-11-19T11:07:18;11.00;;;6.20;;
62037;SDS011;47991;42.974;12.082;2023-11-19T11:09:51;11.00;;;6.60;;
62037;SDS011;47991;42.974;12.082;2023-11-19T11:12:20;11.00;;;7.00;;
62037;SDS011;47991;42.974;12.082;2023-11-19T11:14:50;9.80;;;6.30;;
62037;SDS011;47991;42.974;12.082;2023-11-19T11:17:19;12.20;;;6.70;;
62037;SDS011;47991;42.974;12.082;2023-11-19T11:22:18;11.70;;;6.70;;
62037;SDS011;47991;42.974;12.082;2023-11-19T11:33:41;11.10;;;6.40;;
62037;SDS011;47991;42.974;12.082;2023-11-19T11:38:34;10.80;;;6.20;;
62037;SDS011;47991;42.974;12.082;2023-11-19T11:41:15;10.20;;;5.30;;
62037;SDS011;47991;42.974;12.082;2023-11-19T11:43:46;9.40;;;5.40;;
62037;SDS011;47991;42.974;12.082;2023-11-19T11:49:03;8.50;;;3.50;;
62037;SDS011;47991;42.974;12.082;2023-11-19T11:57:02;8.40;;;4.00;;
62037;SDS011;47991;42.974;12.082;2023-11-19T11:59:37;7.30;;;2.60;;
62037;SDS011;47991;42.974;12.082;2023-11-19T12:02:05;3.80;;;2.00;;
62037;SDS011;47991;42.974;12.082;2023-11-19T12:04:35;5.90;;;1.90;;
62037;SDS011;47991;42.974;12.082;2023-11-19T12:07:06;6.30;;;1.80;;
62037;SDS011;47991;42.974;12.082;2023-11-19T12:09:39;3.70;;;1.50;;
62037;SDS011;47991;42.974;12.082;2023-11-19T12:19:59;4.90;;;2.40;;
62037;SDS011;47991;42.974;12.082;2023-11-19T12:22:27;4.00;;;1.70;;
62037;SDS011;47991;42.974;12.082;2023-11-19T12:24:54;5.80;;;1.90;;
62037;SDS011;47991;42.974;12.082;2023-11-19T12:27:22;9.50;;;2.50;;
62037;SDS011;47991;42.974;12.082;2023-11-19T12:29:49;3.90;;;1.60;;
62037;SDS011;47991;42.974;12.082;2023-11-19T12:32:17;4.50;;;1.90;;
62037;SDS011;47991;42.974;12.082;2023-11-19T12:34:45;9.40;;;1.90;;
62037;SDS011;47991;42.974;12.082;2023-11-19T12:37:12;6.90;;;2.20;;
62037;SDS011;47991;42.974;12.082;2023-11-19T12:39:39;4.00;;;1.90;;
62037;SDS011;47991;42.974;12.082;2023-11-19T12:42:06;4.70;;;1.80;;
62037;SDS011;47991;42.974;12.082;2023-11-19T12:44:33;5.20;;;1.80;;
62037;SDS011;47991;42.974;12.082;2023-11-19T12:49:31;11.20;;;5.80;;
62037;SDS011;47991;42.974;12.082;2023-11-19T12:52:01;13.10;;;5.10;;
62037;SDS011;47991;42.974;12.082;2023-11-19T12:54:32;11.70;;;6.80;;
62037;SDS011;47991;42.974;12.082;2023-11-19T12:59:29;12.60;;;6.20;;
62037;SDS011;47991;42.974;12.082;2023-11-19T13:01:57;12.10;;;6.30;;
62037;SDS011;47991;42.974;12.082;2023-11-19T13:04:28;11.00;;;6.10;;
62037;SDS011;47991;42.974;12.082;2023-11-19T13:06:59;8.40;;;4.90;;
62037;SDS011;47991;42.974;12.082;2023-11-19T13:09:27;8.00;;;4.10;;
62037;SDS011;47991;42.974;12.082;2023-11-19T13:11:55;9.00;;;3.90;;
62037;SDS011;47991;42.974;12.082;2023-11-19T13:14:23;11.00;;;4.50;;
62037;SDS011;47991;42.974;12.082;2023-11-19T13:16:50;9.50;;;5.20;;
62037;SDS011;47991;42.974;12.082;2023-11-19T13:19:17;13.50;;;6.00;;
62037;SDS011;47991;42.974;12.082;2023-11-19T13:21:45;11.90;;;6.50;;
62037;SDS011;47991;42.974;12.082;2023-11-19T13:24:15;13.80;;;7.00;;
62037;SDS011;47991;42.974;12.082;2023-11-19T13:26:42;10.10;;;4.80;;
62037;SDS011;47991;42.974;12.082;2023-11-19T13:29:09;15.30;;;7.20;;
62037;SDS011;47991;42.974;12.082;2023-11-19T13:31:37;13.00;;;7.30;;
62037;SDS011;47991;42.974;12.082;2023-11-19T13:34:04;12.10;;;6.30;;
62037;SDS011;47991;42.974;12.082;2023-11-19T13:36:33;12.80;;;7.40;;
62037;SDS011;47991;42.974;12.082;2023-11-19T13:39:02;11.80;;;6.40;;
62037;SDS011;47991;42.974;12.082;2023-11-19T13:41:29;15.40;;;6.00;;
62037;SDS011;47991;42.974;12.082;2023-11-19T13:43:56;9.70;;;4.50;;
62037;SDS011;47991;42.974;12.082;2023-11-19T13:46:24;9.40;;;3.90;;
62037;SDS011;47991;42.974;12.082;2023-11-19T13:48:51;11.40;;;4.00;;
62037;SDS011;47991;42.974;12.082;2023-11-19T13:51:18;8.90;;;3.40;;
62037;SDS011;47991;42.974;12.082;2023-11-19T13:53:46;6.00;;;2.10;;
62037;SDS011;47991;42.974;12.082;2023-11-19T13:56:13;6.40;;;2.70;;
62037;SDS011;47991;42.974;12.082;2023-11-19T13:58:39;9.30;;;3.40;;
62037;SDS011;47991;42.974;12.082;2023-11-19T14:01:07;8.30;;;2.90;;
62037;SDS011;47991;42.974;12.082;2023-11-19T14:03:34;6.50;;;2.50;;
62037;SDS011;47991;42.974;12.082;2023-11-19T14:06:01;6.40;;;2.40;;
62037;SDS011;47991;42.974;12.082;2023-11-19T14:08:29;4.00;;;1.80;;
62037;SDS011;47991;42.974;12.082;2023-11-19T14:10:56;8.40;;;3.80;;
62037;SDS011;47991;42.974;12.082;2023-11-19T14:13:24;10.10;;;3.50;;
62037;SDS011;47991;42.974;12.082;2023-11-19T14:15:51;8.60;;;2.90;;
62037;SDS011;47991;42.974;12.082;2023-11-19T14:18:18;8.40;;;2.80;;
62037;SDS011;47991;42.974;12.082;2023-11-19T14:20:45;9.70;;;2.60;;
62037;SDS011;47991;42.974;12.082;2023-11-19T14:25:39;9.00;;;2.10;;
62037;SDS011;47991;42.974;12.082;2023-11-19T14:28:06;7.50;;;2.30;;
62037;SDS011;47991;42.974;12.082;2023-11-19T14:30:34;10.40;;;5.40;;
62037;SDS011;47991;42.974;12.082;2023-11-19T14:33:01;18.20;;;10.00;;
62037;SDS011;47991;42.974;12.082;2023-11-19T14:35:29;13.00;;;6.10;;
62037;SDS011;47991;42.974;12.082;2023-11-19T14:37:56;16.40;;;6.80;;
62037;SDS011;47991;42.974;12.082;2023-11-19T14:40:23;13.60;;;7.40;;
62037;SDS011;47991;42.974;12.082;2023-11-19T14:42:50;9.70;;;5.70;;
62037;SDS011;47991;42.974;12.082;2023-11-19T14:45:18;9.30;;;4.90;;
62037;SDS011;47991;42.974;12.082;2023-11-19T14:47:44;9.60;;;4.40;;
62037;SDS011;47991;42.974;12.082;2023-11-19T14:50:12;10.80;;;4.20;;
62037;SDS011;47991;42.974;12.082;2023-11-19T14:52:39;9.50;;;3.90;;
62037;SDS011;47991;42.974;12.082;2023-11-19T14:55:06;13.00;;;4.50;;
62037;SDS011;47991;42.974;12.082;2023-11-19T14:57:34;11.50;;;5.70;;
62037;SDS011;47991;42.974;12.082;2023-11-19T15:00:02;14.30;;;5.80;;
62037;SDS011;47991;42.974;12.082;2023-11-19T15:02:40;11.40;;;5.20;;
62037;SDS011;47991;42.974;12.082;2023-11-19T15:05:09;11.30;;;5.20;;
62037;SDS011;47991;42.974;12.082;2023-11-19T15:07:37;10.90;;;5.90;;
62037;SDS011;47991;42.974;12.082;2023-11-19T15:10:04;10.60;;;5.50;;
62037;SDS011;47991;42.974;12.082;2023-11-19T15:12:37;11.10;;;5.60;;
62037;SDS011;47991;42.974;12.082;2023-11-19T15:15:07;10.80;;;5.70;;
62037;SDS011;47991;42.974;12.082;2023-11-19T15:17:36;13.40;;;6.40;;
62037;SDS011;47991;42.974;12.082;2023-11-19T15:20:03;11.90;;;6.50;;
62037;SDS011;47991;42.974;12.082;2023-11-19T15:22:31;12.20;;;6.20;;
62037;SDS011;47991;42.974;12.082;2023-11-19T15:24:58;13.60;;;6.40;;
62037;SDS011;47991;42.974;12.082;2023-11-19T15:27:25;12.10;;;6.20;;
62037;SDS011;47991;42.974;12.082;2023-11-19T15:29:52;10.20;;;5.90;;
62037;SDS011;47991;42.974;12.082;2023-11-19T15:32:19;11.90;;;6.50;;